Amherst, NE

8:25 AM CDT on October 25, 2014 (GMT -0500)
Regency | Change Station
CLOSE
Current Station
Personal Weather Station
Location: Kearney, NE
Elevation: 2224 ft
Nearby Weather Stations

Elev 2224 ft 40.72 °N, 99.08 °W | Updated 7 seconds ago

Clear
Clear
42.7 °F
Feels Like 40 °F
N
4.1
Wind Variable Wind from NNE
Gusts 4.6 mph

Today
High -- | Low -- °F
--% Chance of Precip.
Yesterday
High -- | Low -- °F
Precip. -- in
7:59 AM 6:41 PM
Waxing Crescent, 3% visible
Pressure 30.12 in
Visibility 10.0 miles
Clouds Clear
Windchill 40 °F
Dew Point 40 °F
Humidity 89%
Rainfall 0.00 in
Snow Depth Not available.
UV 0 out of 12
Pollen 2.40 out of 12
Air Quality Not available.
Flu Activity Sporadic
METAR KEAR 251315Z 30005KT 10SM CLR 06/03 A3012 RMK AO1

More Conditions Fewer Conditions

Pressure 30.12 in
Visibility 10.0 miles
Clouds Clear
Windchill 40 °F
Dew Point 40 °F
Humidity 89%
Rainfall 0.00 in
Snow Depth Not available.
UV 0 out of 12
Pollen 2.40 out of 12
Air Quality Not available.
Flu Activity Sporadic
METAR KEAR 251315Z 30005KT 10SM CLR 06/03 A3012 RMK AO1

More Conditions Fewer Conditions

10-Day Weather Forecast

Almanac

Astronomy

Oct. 25, 2014 Rise Set
Actual Time 7:59 AM CDT 6:41 PM CDT
Civil Twilight 7:31 AM CDT 7:10 PM CDT
Nautical Twilight 6:59 AM CDT 7:42 PM CDT
Astronomical Twilight 6:27 AM CDT 8:13 PM CDT
Moon 9:40 AM CDT 8:05 PM CDT
Length of Visible Light 11h 38m
Length of Day
10h 42m
Tomorrow will be 2m 30s shorter.
Waxing Crescent, 3% of the Moon is Illuminated
Today
Waxing Crescent
Oct 30
First Quarter
Nov 6
Full
Nov 14
Last Quarter
Nov 22
New

Today's Extremes

State Highs State Lows

Community

WunderPhotos

Upload Photos

1,764,829 photos uploaded!

Nearby

Snow Depth

Station Depth Elevation
No new snow has been reported.

Earthquake Activity

City Distance Mag. Time & Date
No recent earthquake activity has been reported nearby.
Minimum magnitude displayed is 2.5.

Coastal Water Temperatures

Place Temperature
No Stations Reporting

Nearby Weather Stations